sensor_id;sensor_type;location;lat;lon;timestamp;P1;durP1;ratioP1;P2;durP2;ratioP2
78854;SDS011;68206;59.956;30.234;2023-03-26T00:01:29;16.20;;;8.18;;
78854;SDS011;68206;59.956;30.234;2023-03-26T00:03:59;17.52;;;8.73;;
78854;SDS011;68206;59.956;30.234;2023-03-26T00:06:28;21.60;;;10.48;;
78854;SDS011;68206;59.956;30.234;2023-03-26T00:09:00;20.27;;;8.82;;
78854;SDS011;68206;59.956;30.234;2023-03-26T00:11:28;17.38;;;9.18;;
78854;SDS011;68206;59.956;30.234;2023-03-26T00:13:57;15.30;;;7.97;;
78854;SDS011;68206;59.956;30.234;2023-03-26T00:16:25;22.75;;;10.05;;
78854;SDS011;68206;59.956;30.234;2023-03-26T00:18:55;16.85;;;7.93;;
78854;SDS011;68206;59.956;30.234;2023-03-26T00:21:25;15.57;;;9.60;;
78854;SDS011;68206;59.956;30.234;2023-03-26T00:23:58;15.35;;;7.28;;
78854;SDS011;68206;59.956;30.234;2023-03-26T00:26:30;12.38;;;6.97;;
78854;SDS011;68206;59.956;30.234;2023-03-26T00:28:59;15.57;;;7.93;;
78854;SDS011;68206;59.956;30.234;2023-03-26T00:31:30;17.65;;;8.05;;
78854;SDS011;68206;59.956;30.234;2023-03-26T00:33:58;14.07;;;7.00;;
78854;SDS011;68206;59.956;30.234;2023-03-26T00:36:29;18.42;;;6.95;;
78854;SDS011;68206;59.956;30.234;2023-03-26T00:38:59;12.27;;;6.10;;
78854;SDS011;68206;59.956;30.234;2023-03-26T00:41:30;10.98;;;5.40;;
78854;SDS011;68206;59.956;30.234;2023-03-26T00:44:03;9.45;;;5.28;;
78854;SDS011;68206;59.956;30.234;2023-03-26T00:46:31;9.82;;;5.38;;
78854;SDS011;68206;59.956;30.234;2023-03-26T00:48:59;12.75;;;5.72;;
78854;SDS011;68206;59.956;30.234;2023-03-26T00:51:29;11.55;;;5.35;;
78854;SDS011;68206;59.956;30.234;2023-03-26T00:54:00;12.57;;;5.60;;
78854;SDS011;68206;59.956;30.234;2023-03-26T00:56:28;10.73;;;5.22;;
78854;SDS011;68206;59.956;30.234;2023-03-26T00:58:57;10.38;;;5.22;;
78854;SDS011;68206;59.956;30.234;2023-03-26T01:01:26;9.98;;;5.22;;
78854;SDS011;68206;59.956;30.234;2023-03-26T01:03:57;9.52;;;5.00;;
78854;SDS011;68206;59.956;30.234;2023-03-26T01:06:45;13.20;;;4.47;;
78854;SDS011;68206;59.956;30.234;2023-03-26T01:09:16;11.40;;;4.35;;
78854;SDS011;68206;59.956;30.234;2023-03-26T01:11:45;10.68;;;4.13;;
78854;SDS011;68206;59.956;30.234;2023-03-26T01:14:16;11.13;;;5.00;;
78854;SDS011;68206;59.956;30.234;2023-03-26T01:16:46;8.15;;;4.53;;
78854;SDS011;68206;59.956;30.234;2023-03-26T01:19:20;8.57;;;3.90;;
78854;SDS011;68206;59.956;30.234;2023-03-26T01:21:52;9.43;;;4.28;;
78854;SDS011;68206;59.956;30.234;2023-03-26T01:24:21;10.45;;;4.57;;
78854;SDS011;68206;59.956;30.234;2023-03-26T01:26:53;12.23;;;5.15;;
78854;SDS011;68206;59.956;30.234;2023-03-26T01:29:32;11.32;;;4.78;;
78854;SDS011;68206;59.956;30.234;2023-03-26T01:32:12;11.70;;;4.00;;
78854;SDS011;68206;59.956;30.234;2023-03-26T01:34:55;11.23;;;4.68;;
78854;SDS011;68206;59.956;30.234;2023-03-26T01:37:33;7.25;;;3.10;;
78854;SDS011;68206;59.956;30.234;2023-03-26T01:40:10;6.95;;;3.75;;
78854;SDS011;68206;59.956;30.234;2023-03-26T01:42:45;7.97;;;3.58;;
78854;SDS011;68206;59.956;30.234;2023-03-26T01:45:19;15.02;;;4.82;;
78854;SDS011;68206;59.956;30.234;2023-03-26T01:47:51;10.75;;;4.90;;
78854;SDS011;68206;59.956;30.234;2023-03-26T01:50:20;15.55;;;6.88;;
78854;SDS011;68206;59.956;30.234;2023-03-26T01:52:48;12.93;;;5.88;;
78854;SDS011;68206;59.956;30.234;2023-03-26T01:55:17;13.07;;;4.78;;
78854;SDS011;68206;59.956;30.234;2023-03-26T01:57:49;11.80;;;5.47;;
78854;SDS011;68206;59.956;30.234;2023-03-26T02:00:25;9.75;;;5.05;;
78854;SDS011;68206;59.956;30.234;2023-03-26T02:05:51;10.40;;;4.75;;
78854;SDS011;68206;59.956;30.234;2023-03-26T02:08:25;12.27;;;5.45;;
78854;SDS011;68206;59.956;30.234;2023-03-26T02:11:04;15.40;;;6.55;;
78854;SDS011;68206;59.956;30.234;2023-03-26T02:13:37;14.13;;;5.10;;
78854;SDS011;68206;59.956;30.234;2023-03-26T02:16:07;11.98;;;5.07;;
78854;SDS011;68206;59.956;30.234;2023-03-26T02:18:37;14.32;;;5.10;;
78854;SDS011;68206;59.956;30.234;2023-03-26T02:21:06;12.23;;;5.50;;
78854;SDS011;68206;59.956;30.234;2023-03-26T02:23:39;9.27;;;5.10;;
78854;SDS011;68206;59.956;30.234;2023-03-26T02:26:15;8.98;;;4.47;;
78854;SDS011;68206;59.956;30.234;2023-03-26T02:28:55;17.23;;;5.50;;
78854;SDS011;68206;59.956;30.234;2023-03-26T02:31:24;16.33;;;5.80;;
78854;SDS011;68206;59.956;30.234;2023-03-26T02:33:52;12.30;;;5.22;;
78854;SDS011;68206;59.956;30.234;2023-03-26T02:36:23;11.43;;;4.93;;
78854;SDS011;68206;59.956;30.234;2023-03-26T02:38:56;13.07;;;5.15;;
78854;SDS011;68206;59.956;30.234;2023-03-26T02:41:29;9.82;;;4.50;;
78854;SDS011;68206;59.956;30.234;2023-03-26T02:44:01;8.57;;;4.20;;
78854;SDS011;68206;59.956;30.234;2023-03-26T02:46:49;8.32;;;4.05;;
78854;SDS011;68206;59.956;30.234;2023-03-26T02:49:35;12.02;;;4.70;;
78854;SDS011;68206;59.956;30.234;2023-03-26T02:52:04;10.68;;;4.88;;
78854;SDS011;68206;59.956;30.234;2023-03-26T02:54:34;10.40;;;4.95;;
78854;SDS011;68206;59.956;30.234;2023-03-26T02:57:22;9.70;;;4.20;;
78854;SDS011;68206;59.956;30.234;2023-03-26T03:00:20;8.38;;;4.70;;
78854;SDS011;68206;59.956;30.234;2023-03-26T03:03:09;8.05;;;3.85;;
78854;SDS011;68206;59.956;30.234;2023-03-26T03:05:56;11.38;;;5.05;;
78854;SDS011;68206;59.956;30.234;2023-03-26T03:08:32;8.95;;;4.00;;
78854;SDS011;68206;59.956;30.234;2023-03-26T03:11:20;7.72;;;3.75;;
78854;SDS011;68206;59.956;30.234;2023-03-26T03:13:52;11.27;;;4.20;;
78854;SDS011;68206;59.956;30.234;2023-03-26T03:16:23;6.97;;;3.75;;
78854;SDS011;68206;59.956;30.234;2023-03-26T03:18:52;10.05;;;3.90;;
78854;SDS011;68206;59.956;30.234;2023-03-26T03:21:35;7.20;;;4.25;;
78854;SDS011;68206;59.956;30.234;2023-03-26T03:24:04;8.40;;;3.67;;
78854;SDS011;68206;59.956;30.234;2023-03-26T03:26:36;7.80;;;4.15;;
78854;SDS011;68206;59.956;30.234;2023-03-26T03:29:31;6.53;;;3.65;;
78854;SDS011;68206;59.956;30.234;2023-03-26T03:32:28;8.40;;;4.00;;
78854;SDS011;68206;59.956;30.234;2023-03-26T03:35:00;9.73;;;4.03;;
78854;SDS011;68206;59.956;30.234;2023-03-26T03:37:28;8.82;;;4.03;;
78854;SDS011;68206;59.956;30.234;2023-03-26T03:39:58;7.88;;;3.60;;
78854;SDS011;68206;59.956;30.234;2023-03-26T03:42:29;12.65;;;4.18;;
78854;SDS011;68206;59.956;30.234;2023-03-26T03:45:02;7.95;;;3.55;;
78854;SDS011;68206;59.956;30.234;2023-03-26T03:48:01;6.63;;;3.45;;
78854;SDS011;68206;59.956;30.234;2023-03-26T03:50:39;8.68;;;3.70;;
78854;SDS011;68206;59.956;30.234;2023-03-26T03:53:21;8.43;;;4.68;;
78854;SDS011;68206;59.956;30.234;2023-03-26T03:55:53;9.02;;;3.95;;
78854;SDS011;68206;59.956;30.234;2023-03-26T04:01:05;6.95;;;3.33;;
78854;SDS011;68206;59.956;30.234;2023-03-26T04:03:52;7.00;;;3.63;;
78854;SDS011;68206;59.956;30.234;2023-03-26T04:06:23;8.23;;;3.50;;
78854;SDS011;68206;59.956;30.234;2023-03-26T04:08:52;7.60;;;3.65;;
78854;SDS011;68206;59.956;30.234;2023-03-26T04:11:20;8.65;;;4.10;;
78854;SDS011;68206;59.956;30.234;2023-03-26T04:14:11;8.38;;;3.78;;
78854;SDS011;68206;59.956;30.234;2023-03-26T04:17:10;7.03;;;3.33;;
78854;SDS011;68206;59.956;30.234;2023-03-26T04:19:39;6.55;;;3.13;;
78854;SDS011;68206;59.956;30.234;2023-03-26T04:22:08;7.38;;;3.30;;
78854;SDS011;68206;59.956;30.234;2023-03-26T04:24:58;8.73;;;3.80;;
78854;SDS011;68206;59.956;30.234;2023-03-26T04:27:50;7.93;;;3.45;;
78854;SDS011;68206;59.956;30.234;2023-03-26T04:30:40;7.55;;;3.60;;
78854;SDS011;68206;59.956;30.234;2023-03-26T04:33:27;8.18;;;3.67;;
78854;SDS011;68206;59.956;30.234;2023-03-26T04:35:57;7.40;;;3.42;;
78854;SDS011;68206;59.956;30.234;2023-03-26T04:38:33;10.07;;;3.95;;
78854;SDS011;68206;59.956;30.234;2023-03-26T04:41:08;10.52;;;4.78;;
78854;SDS011;68206;59.956;30.234;2023-03-26T04:43:47;8.60;;;3.53;;
78854;SDS011;68206;59.956;30.234;2023-03-26T04:46:23;8.43;;;4.18;;
78854;SDS011;68206;59.956;30.234;2023-03-26T04:49:03;9.52;;;3.97;;
78854;SDS011;68206;59.956;30.234;2023-03-26T04:51:33;8.32;;;4.07;;
78854;SDS011;68206;59.956;30.234;2023-03-26T04:54:14;6.63;;;3.40;;
78854;SDS011;68206;59.956;30.234;2023-03-26T04:56:53;9.57;;;3.83;;
78854;SDS011;68206;59.956;30.234;2023-03-26T04:59:33;9.43;;;3.88;;
78854;SDS011;68206;59.956;30.234;2023-03-26T05:02:06;6.95;;;4.15;;
78854;SDS011;68206;59.956;30.234;2023-03-26T05:04:47;8.43;;;3.75;;
78854;SDS011;68206;59.956;30.234;2023-03-26T05:07:18;10.65;;;4.13;;
78854;SDS011;68206;59.956;30.234;2023-03-26T05:09:51;11.07;;;3.95;;
78854;SDS011;68206;59.956;30.234;2023-03-26T05:12:38;11.98;;;4.28;;
78854;SDS011;68206;59.956;30.234;2023-03-26T05:15:11;16.33;;;4.40;;
78854;SDS011;68206;59.956;30.234;2023-03-26T05:17:58;10.93;;;3.95;;
78854;SDS011;68206;59.956;30.234;2023-03-26T05:20:36;9.65;;;4.10;;
78854;SDS011;68206;59.956;30.234;2023-03-26T05:23:06;6.35;;;3.28;;
78854;SDS011;68206;59.956;30.234;2023-03-26T05:25:36;10.40;;;3.65;;
78854;SDS011;68206;59.956;30.234;2023-03-26T05:28:13;12.50;;;4.57;;
78854;SDS011;68206;59.956;30.234;2023-03-26T05:30:51;8.38;;;3.75;;
78854;SDS011;68206;59.956;30.234;2023-03-26T05:33:22;9.90;;;3.25;;
78854;SDS011;68206;59.956;30.234;2023-03-26T05:36:18;7.30;;;3.35;;
78854;SDS011;68206;59.956;30.234;2023-03-26T05:38:55;11.63;;;4.47;;
78854;SDS011;68206;59.956;30.234;2023-03-26T05:41:47;8.00;;;4.13;;
78854;SDS011;68206;59.956;30.234;2023-03-26T05:44:16;11.32;;;3.95;;
78854;SDS011;68206;59.956;30.234;2023-03-26T05:46:45;9.07;;;4.22;;
78854;SDS011;68206;59.956;30.234;2023-03-26T05:49:19;14.85;;;4.95;;
78854;SDS011;68206;59.956;30.234;2023-03-26T05:51:49;12.07;;;4.80;;
78854;SDS011;68206;59.956;30.234;2023-03-26T05:54:33;9.73;;;4.47;;
78854;SDS011;68206;59.956;30.234;2023-03-26T05:57:20;10.45;;;5.25;;
78854;SDS011;68206;59.956;30.234;2023-03-26T06:00:08;15.43;;;5.93;;
78854;SDS011;68206;59.956;30.234;2023-03-26T06:02:43;14.93;;;5.47;;
78854;SDS011;68206;59.956;30.234;2023-03-26T06:05:47;13.40;;;5.20;;
78854;SDS011;68206;59.956;30.234;2023-03-26T06:08:21;12.05;;;5.05;;
78854;SDS011;68206;59.956;30.234;2023-03-26T06:10:50;10.52;;;4.22;;
78854;SDS011;68206;59.956;30.234;2023-03-26T06:13:26;10.93;;;4.32;;
78854;SDS011;68206;59.956;30.234;2023-03-26T06:15:56;18.02;;;5.88;;
78854;SDS011;68206;59.956;30.234;2023-03-26T06:18:36;8.07;;;4.32;;
78854;SDS011;68206;59.956;30.234;2023-03-26T06:21:25;9.00;;;4.63;;
78854;SDS011;68206;59.956;30.234;2023-03-26T06:24:01;10.50;;;4.72;;
78854;SDS011;68206;59.956;30.234;2023-03-26T06:26:42;15.10;;;4.70;;
78854;SDS011;68206;59.956;30.234;2023-03-26T06:29:36;13.32;;;5.57;;
78854;SDS011;68206;59.956;30.234;2023-03-26T06:32:24;13.40;;;5.18;;
78854;SDS011;68206;59.956;30.234;2023-03-26T06:34:58;11.93;;;4.78;;
78854;SDS011;68206;59.956;30.234;2023-03-26T06:37:26;12.20;;;5.38;;
78854;SDS011;68206;59.956;30.234;2023-03-26T06:40:00;10.48;;;5.18;;
78854;SDS011;68206;59.956;30.234;2023-03-26T06:42:47;15.43;;;6.28;;
78854;SDS011;68206;59.956;30.234;2023-03-26T06:45:49;14.52;;;6.85;;
78854;SDS011;68206;59.956;30.234;2023-03-26T06:48:32;16.70;;;8.63;;
78854;SDS011;68206;59.956;30.234;2023-03-26T06:51:15;22.48;;;9.32;;
78854;SDS011;68206;59.956;30.234;2023-03-26T06:54:02;17.80;;;8.10;;
78854;SDS011;68206;59.956;30.234;2023-03-26T06:56:53;16.05;;;7.53;;
78854;SDS011;68206;59.956;30.234;2023-03-26T06:59:33;20.38;;;8.95;;
78854;SDS011;68206;59.956;30.234;2023-03-26T07:02:20;23.92;;;11.93;;
78854;SDS011;68206;59.956;30.234;2023-03-26T07:05:24;23.58;;;11.57;;
78854;SDS011;68206;59.956;30.234;2023-03-26T07:08:19;24.88;;;10.85;;
78854;SDS011;68206;59.956;30.234;2023-03-26T07:11:08;23.80;;;11.73;;
78854;SDS011;68206;59.956;30.234;2023-03-26T07:13:54;26.90;;;9.65;;
78854;SDS011;68206;59.956;30.234;2023-03-26T07:16:44;21.20;;;9.95;;
78854;SDS011;68206;59.956;30.234;2023-03-26T07:19:35;24.92;;;9.63;;
78854;SDS011;68206;59.956;30.234;2023-03-26T07:22:03;21.50;;;10.23;;
78854;SDS011;68206;59.956;30.234;2023-03-26T07:24:50;23.02;;;9.32;;
78854;SDS011;68206;59.956;30.234;2023-03-26T07:27:44;20.55;;;7.93;;
78854;SDS011;68206;59.956;30.234;2023-03-26T07:30:31;22.10;;;9.50;;
78854;SDS011;68206;59.956;30.234;2023-03-26T07:33:21;20.88;;;10.23;;
78854;SDS011;68206;59.956;30.234;2023-03-26T07:36:18;20.92;;;8.23;;
78854;SDS011;68206;59.956;30.234;2023-03-26T07:39:19;14.13;;;6.63;;
78854;SDS011;68206;59.956;30.234;2023-03-26T07:42:27;11.02;;;5.97;;
78854;SDS011;68206;59.956;30.234;2023-03-26T07:45:27;21.65;;;8.70;;
78854;SDS011;68206;59.956;30.234;2023-03-26T07:48:18;17.95;;;6.30;;
78854;SDS011;68206;59.956;30.234;2023-03-26T07:51:06;20.00;;;8.60;;
78854;SDS011;68206;59.956;30.234;2023-03-26T07:53:49;14.65;;;6.50;;
78854;SDS011;68206;59.956;30.234;2023-03-26T07:56:37;17.63;;;7.75;;
78854;SDS011;68206;59.956;30.234;2023-03-26T07:59:27;16.05;;;6.72;;
78854;SDS011;68206;59.956;30.234;2023-03-26T08:02:31;17.70;;;8.27;;
78854;SDS011;68206;59.956;30.234;2023-03-26T08:05:46;19.55;;;7.03;;
78854;SDS011;68206;59.956;30.234;2023-03-26T08:08:31;18.80;;;7.88;;
78854;SDS011;68206;59.956;30.234;2023-03-26T08:11:27;21.70;;;8.43;;
78854;SDS011;68206;59.956;30.234;2023-03-26T08:14:09;13.18;;;5.65;;
78854;SDS011;68206;59.956;30.234;2023-03-26T08:16:49;13.15;;;6.40;;
78854;SDS011;68206;59.956;30.234;2023-03-26T08:19:35;9.98;;;5.85;;
78854;SDS011;68206;59.956;30.234;2023-03-26T08:22:10;11.85;;;5.47;;
78854;SDS011;68206;59.956;30.234;2023-03-26T08:24:44;11.35;;;5.32;;
78854;SDS011;68206;59.956;30.234;2023-03-26T08:27:24;10.63;;;5.03;;
78854;SDS011;68206;59.956;30.234;2023-03-26T08:30:04;11.88;;;5.30;;
78854;SDS011;68206;59.956;30.234;2023-03-26T08:32:37;11.57;;;5.03;;
78854;SDS011;68206;59.956;30.234;2023-03-26T08:35:11;13.52;;;5.80;;
78854;SDS011;68206;59.956;30.234;2023-03-26T08:37:40;18.08;;;6.65;;
78854;SDS011;68206;59.956;30.234;2023-03-26T08:40:11;12.70;;;5.28;;
78854;SDS011;68206;59.956;30.234;2023-03-26T08:43:02;17.55;;;6.22;;
78854;SDS011;68206;59.956;30.234;2023-03-26T08:45:51;13.25;;;5.75;;
78854;SDS011;68206;59.956;30.234;2023-03-26T08:48:45;14.02;;;6.60;;
78854;SDS011;68206;59.956;30.234;2023-03-26T08:54:48;14.20;;;6.47;;
78854;SDS011;68206;59.956;30.234;2023-03-26T08:57:37;16.27;;;7.05;;
78854;SDS011;68206;59.956;30.234;2023-03-26T09:00:27;12.57;;;5.50;;
78854;SDS011;68206;59.956;30.234;2023-03-26T09:03:10;14.30;;;6.28;;
78854;SDS011;68206;59.956;30.234;2023-03-26T09:06:18;15.30;;;6.78;;
78854;SDS011;68206;59.956;30.234;2023-03-26T09:09:14;17.48;;;7.68;;
78854;SDS011;68206;59.956;30.234;2023-03-26T09:15:23;15.98;;;6.78;;
78854;SDS011;68206;59.956;30.234;2023-03-26T09:21:29;10.85;;;5.07;;
78854;SDS011;68206;59.956;30.234;2023-03-26T09:27:36;14.30;;;5.65;;
78854;SDS011;68206;59.956;30.234;2023-03-26T09:33:11;11.90;;;5.47;;
78854;SDS011;68206;59.956;30.234;2023-03-26T09:36:00;16.70;;;6.45;;
78854;SDS011;68206;59.956;30.234;2023-03-26T09:38:42;11.10;;;4.78;;
78854;SDS011;68206;59.956;30.234;2023-03-26T09:41:15;14.75;;;5.68;;
78854;SDS011;68206;59.956;30.234;2023-03-26T09:47:08;17.48;;;7.30;;
78854;SDS011;68206;59.956;30.234;2023-03-26T09:49:50;12.27;;;5.93;;
78854;SDS011;68206;59.956;30.234;2023-03-26T09:52:32;15.82;;;6.75;;
78854;SDS011;68206;59.956;30.234;2023-03-26T09:55:21;11.73;;;5.70;;
78854;SDS011;68206;59.956;30.234;2023-03-26T09:58:07;12.43;;;5.68;;
78854;SDS011;68206;59.956;30.234;2023-03-26T10:00:49;10.63;;;5.07;;
78854;SDS011;68206;59.956;30.234;2023-03-26T10:03:41;14.32;;;7.53;;
78854;SDS011;68206;59.956;30.234;2023-03-26T10:06:21;13.93;;;6.05;;
78854;SDS011;68206;59.956;30.234;2023-03-26T10:09:09;12.95;;;5.93;;
78854;SDS011;68206;59.956;30.234;2023-03-26T10:11:53;12.43;;;6.75;;
78854;SDS011;68206;59.956;30.234;2023-03-26T10:14:31;14.35;;;6.28;;
78854;SDS011;68206;59.956;30.234;2023-03-26T10:17:08;15.45;;;5.90;;
78854;SDS011;68206;59.956;30.234;2023-03-26T10:19:56;12.48;;;5.85;;
78854;SDS011;68206;59.956;30.234;2023-03-26T10:22:39;15.30;;;8.02;;
78854;SDS011;68206;59.956;30.234;2023-03-26T10:25:27;11.43;;;6.45;;
78854;SDS011;68206;59.956;30.234;2023-03-26T10:28:14;12.65;;;6.45;;
78854;SDS011;68206;59.956;30.234;2023-03-26T10:30:58;17.05;;;6.32;;
78854;SDS011;68206;59.956;30.234;2023-03-26T10:33:48;13.98;;;6.80;;
78854;SDS011;68206;59.956;30.234;2023-03-26T10:36:29;13.77;;;6.65;;
78854;SDS011;68206;59.956;30.234;2023-03-26T10:39:02;12.57;;;5.10;;
78854;SDS011;68206;59.956;30.234;2023-03-26T10:42:22;11.25;;;5.03;;
78854;SDS011;68206;59.956;30.234;2023-03-26T10:45:17;14.02;;;6.38;;
78854;SDS011;68206;59.956;30.234;2023-03-26T10:48:01;11.38;;;5.43;;
78854;SDS011;68206;59.956;30.234;2023-03-26T10:53:47;10.57;;;5.40;;
78854;SDS011;68206;59.956;30.234;2023-03-26T10:56:20;8.45;;;4.53;;
78854;SDS011;68206;59.956;30.234;2023-03-26T10:58:52;15.60;;;6.07;;
78854;SDS011;68206;59.956;30.234;2023-03-26T11:01:26;9.55;;;5.00;;
78854;SDS011;68206;59.956;30.234;2023-03-26T11:04:05;7.80;;;3.92;;
78854;SDS011;68206;59.956;30.234;2023-03-26T11:06:46;8.98;;;4.47;;
78854;SDS011;68206;59.956;30.234;2023-03-26T11:09:25;7.22;;;4.18;;
78854;SDS011;68206;59.956;30.234;2023-03-26T11:12:01;8.88;;;4.72;;
78854;SDS011;68206;59.956;30.234;2023-03-26T11:14:57;8.63;;;4.68;;
78854;SDS011;68206;59.956;30.234;2023-03-26T11:17:41;9.35;;;4.53;;
78854;SDS011;68206;59.956;30.234;2023-03-26T11:20:17;7.53;;;4.03;;
78854;SDS011;68206;59.956;30.234;2023-03-26T11:22:55;10.18;;;4.00;;
78854;SDS011;68206;59.956;30.234;2023-03-26T11:26:01;7.78;;;4.07;;
78854;SDS011;68206;59.956;30.234;2023-03-26T11:28:39;7.85;;;4.65;;
78854;SDS011;68206;59.956;30.234;2023-03-26T11:31:50;6.97;;;4.13;;
78854;SDS011;68206;59.956;30.234;2023-03-26T11:34:29;8.05;;;4.53;;
78854;SDS011;68206;59.956;30.234;2023-03-26T11:37:03;8.60;;;5.55;;
78854;SDS011;68206;59.956;30.234;2023-03-26T11:39:36;6.07;;;3.95;;
78854;SDS011;68206;59.956;30.234;2023-03-26T11:42:14;9.50;;;4.68;;
78854;SDS011;68206;59.956;30.234;2023-03-26T11:44:45;6.82;;;4.05;;
78854;SDS011;68206;59.956;30.234;2023-03-26T11:47:20;7.53;;;4.30;;
78854;SDS011;68206;59.956;30.234;2023-03-26T11:49:51;9.23;;;4.78;;
78854;SDS011;68206;59.956;30.234;2023-03-26T11:52:24;8.75;;;4.28;;
78854;SDS011;68206;59.956;30.234;2023-03-26T11:54:53;7.78;;;4.60;;
78854;SDS011;68206;59.956;30.234;2023-03-26T11:57:26;6.65;;;4.45;;
78854;SDS011;68206;59.956;30.234;2023-03-26T11:59:57;7.30;;;3.97;;
78854;SDS011;68206;59.956;30.234;2023-03-26T12:02:38;8.45;;;4.35;;
78854;SDS011;68206;59.956;30.234;2023-03-26T12:05:12;6.75;;;4.35;;
78854;SDS011;68206;59.956;30.234;2023-03-26T12:07:44;7.22;;;4.75;;
78854;SDS011;68206;59.956;30.234;2023-03-26T12:10:24;6.63;;;4.22;;
78854;SDS011;68206;59.956;30.234;2023-03-26T12:12:57;7.70;;;5.05;;
78854;SDS011;68206;59.956;30.234;2023-03-26T12:15:27;6.60;;;4.25;;
78854;SDS011;68206;59.956;30.234;2023-03-26T12:17:58;9.40;;;5.53;;
78854;SDS011;68206;59.956;30.234;2023-03-26T12:20:44;7.70;;;4.82;;
78854;SDS011;68206;59.956;30.234;2023-03-26T12:23:32;10.80;;;5.40;;
78854;SDS011;68206;59.956;30.234;2023-03-26T12:26:04;8.88;;;4.85;;
78854;SDS011;68206;59.956;30.234;2023-03-26T12:28:46;6.00;;;3.63;;
78854;SDS011;68206;59.956;30.234;2023-03-26T12:31:17;11.73;;;5.32;;
78854;SDS011;68206;59.956;30.234;2023-03-26T12:34:02;7.28;;;4.20;;
78854;SDS011;68206;59.956;30.234;2023-03-26T12:36:35;9.15;;;5.57;;
78854;SDS011;68206;59.956;30.234;2023-03-26T12:39:20;8.73;;;4.80;;
78854;SDS011;68206;59.956;30.234;2023-03-26T12:42:25;9.00;;;4.30;;
78854;SDS011;68206;59.956;30.234;2023-03-26T12:45:20;7.20;;;3.92;;
78854;SDS011;68206;59.956;30.234;2023-03-26T12:47:52;8.00;;;4.78;;
78854;SDS011;68206;59.956;30.234;2023-03-26T12:50:38;11.95;;;5.28;;
78854;SDS011;68206;59.956;30.234;2023-03-26T12:53:20;7.15;;;4.25;;
78854;SDS011;68206;59.956;30.234;2023-03-26T12:56:04;8.20;;;4.82;;
78854;SDS011;68206;59.956;30.234;2023-03-26T12:59:00;9.93;;;5.65;;
78854;SDS011;68206;59.956;30.234;2023-03-26T13:01:51;11.18;;;4.03;;
78854;SDS011;68206;59.956;30.234;2023-03-26T13:04:30;6.75;;;3.97;;
78854;SDS011;68206;59.956;30.234;2023-03-26T13:07:32;10.02;;;4.95;;
78854;SDS011;68206;59.956;30.234;2023-03-26T13:13:17;6.70;;;4.00;;
78854;SDS011;68206;59.956;30.234;2023-03-26T13:16:01;9.43;;;4.65;;
78854;SDS011;68206;59.956;30.234;2023-03-26T13:18:40;9.82;;;4.90;;
78854;SDS011;68206;59.956;30.234;2023-03-26T13:21:15;11.32;;;5.25;;
78854;SDS011;68206;59.956;30.234;2023-03-26T13:23:53;8.93;;;4.75;;
78854;SDS011;68206;59.956;30.234;2023-03-26T13:26:34;10.18;;;5.15;;
78854;SDS011;68206;59.956;30.234;2023-03-26T13:29:13;8.45;;;4.60;;
78854;SDS011;68206;59.956;30.234;2023-03-26T13:31:54;7.15;;;4.20;;
78854;SDS011;68206;59.956;30.234;2023-03-26T13:34:33;7.75;;;4.13;;
78854;SDS011;68206;59.956;30.234;2023-03-26T13:37:10;7.90;;;3.83;;
78854;SDS011;68206;59.956;30.234;2023-03-26T13:39:47;7.60;;;3.40;;
78854;SDS011;68206;59.956;30.234;2023-03-26T13:42:25;4.47;;;2.75;;
78854;SDS011;68206;59.956;30.234;2023-03-26T13:45:05;4.82;;;2.90;;
78854;SDS011;68206;59.956;30.234;2023-03-26T13:47:44;5.78;;;3.65;;
78854;SDS011;68206;59.956;30.234;2023-03-26T13:50:19;8.98;;;3.72;;
78854;SDS011;68206;59.956;30.234;2023-03-26T13:52:52;5.53;;;3.20;;
78854;SDS011;68206;59.956;30.234;2023-03-26T13:55:25;5.15;;;3.08;;
78854;SDS011;68206;59.956;30.234;2023-03-26T13:57:58;6.22;;;3.70;;
78854;SDS011;68206;59.956;30.234;2023-03-26T14:00:36;4.95;;;2.78;;
78854;SDS011;68206;59.956;30.234;2023-03-26T14:03:15;7.00;;;3.47;;
78854;SDS011;68206;59.956;30.234;2023-03-26T14:05:50;6.85;;;3.60;;
78854;SDS011;68206;59.956;30.234;2023-03-26T14:08:23;5.22;;;2.78;;
78854;SDS011;68206;59.956;30.234;2023-03-26T14:11:00;4.50;;;2.47;;
78854;SDS011;68206;59.956;30.234;2023-03-26T14:13:37;4.30;;;2.80;;
78854;SDS011;68206;59.956;30.234;2023-03-26T14:16:13;5.18;;;3.05;;
78854;SDS011;68206;59.956;30.234;2023-03-26T14:18:46;6.60;;;2.85;;
78854;SDS011;68206;59.956;30.234;2023-03-26T14:24:30;5.13;;;2.85;;
78854;SDS011;68206;59.956;30.234;2023-03-26T14:27:17;4.95;;;2.92;;
78854;SDS011;68206;59.956;30.234;2023-03-26T14:33:19;5.25;;;2.60;;
78854;SDS011;68206;59.956;30.234;2023-03-26T14:36:02;4.53;;;2.58;;
78854;SDS011;68206;59.956;30.234;2023-03-26T14:38:52;5.55;;;3.30;;
78854;SDS011;68206;59.956;30.234;2023-03-26T14:41:32;4.93;;;2.72;;
78854;SDS011;68206;59.956;30.234;2023-03-26T14:44:16;4.45;;;2.95;;
78854;SDS011;68206;59.956;30.234;2023-03-26T14:47:15;4.93;;;2.50;;
78854;SDS011;68206;59.956;30.234;2023-03-26T14:49:49;4.97;;;2.63;;
78854;SDS011;68206;59.956;30.234;2023-03-26T14:52:37;4.22;;;2.40;;
78854;SDS011;68206;59.956;30.234;2023-03-26T14:55:15;6.07;;;2.58;;
78854;SDS011;68206;59.956;30.234;2023-03-26T14:57:59;4.93;;;2.53;;
78854;SDS011;68206;59.956;30.234;2023-03-26T15:00:54;4.35;;;2.35;;
78854;SDS011;68206;59.956;30.234;2023-03-26T15:13:14;5.28;;;2.28;;
78854;SDS011;68206;59.956;30.234;2023-03-26T15:16:05;3.38;;;2.17;;
78854;SDS011;68206;59.956;30.234;2023-03-26T15:21:57;3.50;;;2.38;;
78854;SDS011;68206;59.956;30.234;2023-03-26T15:25:13;3.50;;;2.20;;
78854;SDS011;68206;59.956;30.234;2023-03-26T15:31:12;7.00;;;2.30;;
78854;SDS011;68206;59.956;30.234;2023-03-26T15:37:25;5.20;;;2.03;;
78854;SDS011;68206;59.956;30.234;2023-03-26T15:40:19;4.15;;;2.10;;
78854;SDS011;68206;59.956;30.234;2023-03-26T15:43:08;4.07;;;1.95;;
78854;SDS011;68206;59.956;30.234;2023-03-26T15:45:40;5.68;;;2.08;;
78854;SDS011;68206;59.956;30.234;2023-03-26T15:48:13;3.20;;;2.38;;
78854;SDS011;68206;59.956;30.234;2023-03-26T15:50:57;4.75;;;2.20;;
78854;SDS011;68206;59.956;30.234;2023-03-26T15:53:35;4.75;;;2.40;;
78854;SDS011;68206;59.956;30.234;2023-03-26T15:56:17;8.32;;;2.47;;
78854;SDS011;68206;59.956;30.234;2023-03-26T15:58:55;3.80;;;2.45;;
78854;SDS011;68206;59.956;30.234;2023-03-26T16:04:36;3.35;;;2.15;;
78854;SDS011;68206;59.956;30.234;2023-03-26T16:07:25;3.50;;;2.10;;
78854;SDS011;68206;59.956;30.234;2023-03-26T16:10:20;3.67;;;2.13;;
78854;SDS011;68206;59.956;30.234;2023-03-26T16:13:13;6.00;;;2.72;;
78854;SDS011;68206;59.956;30.234;2023-03-26T16:15:52;3.45;;;2.35;;
78854;SDS011;68206;59.956;30.234;2023-03-26T16:18:29;6.45;;;2.40;;
78854;SDS011;68206;59.956;30.234;2023-03-26T16:24:26;7.07;;;3.03;;
78854;SDS011;68206;59.956;30.234;2023-03-26T16:32:56;5.28;;;2.72;;
78854;SDS011;68206;59.956;30.234;2023-03-26T16:38:45;3.65;;;2.33;;
78854;SDS011;68206;59.956;30.234;2023-03-26T16:41:16;3.25;;;2.03;;
78854;SDS011;68206;59.956;30.234;2023-03-26T16:43:48;3.35;;;2.03;;
78854;SDS011;68206;59.956;30.234;2023-03-26T16:46:28;4.07;;;2.28;;
78854;SDS011;68206;59.956;30.234;2023-03-26T16:49:06;3.45;;;2.38;;
78854;SDS011;68206;59.956;30.234;2023-03-26T16:51:57;5.22;;;2.90;;
78854;SDS011;68206;59.956;30.234;2023-03-26T16:54:39;4.07;;;2.20;;
78854;SDS011;68206;59.956;30.234;2023-03-26T17:00:00;3.00;;;2.10;;